createdAt,value
2018-11-04T00:00:15.648Z,6.425
2018-11-04T00:03:15.339Z,8.650
2018-11-04T00:06:15.258Z,8.825
2018-11-04T00:09:15.071Z,9.300
2018-11-04T00:12:14.982Z,9.800
2018-11-04T00:15:15.789Z,6.588
2018-11-04T00:18:15.533Z,9.150
2018-11-04T00:21:15.069Z,9.375
2018-11-04T00:24:15.707Z,8.050
2018-11-04T00:27:15.211Z,8.650
2018-11-04T00:30:15.823Z,7.450
2018-11-04T00:33:15.416Z,6.162
2018-11-04T00:36:15.822Z,10.512
2018-11-04T00:39:15.346Z,9.488
2018-11-04T00:42:15.704Z,8.375
2018-11-04T00:45:15.390Z,8.425
2018-11-04T00:48:15.205Z,8.850
2018-11-04T00:51:15.266Z,14.350
2018-11-04T00:54:15.142Z,8.238
2018-11-04T00:57:15.672Z,9.325
2018-11-04T01:00:15.352Z,8.075
2018-11-04T01:03:15.768Z,9.887
2018-11-04T01:06:15.616Z,10.925
2018-11-04T01:09:15.497Z,9.625
2018-11-04T01:12:15.630Z,10.275
2018-11-04T01:15:15.308Z,9.300
2018-11-04T01:18:15.094Z,7.475
2018-11-04T01:21:15.786Z,10.650
2018-11-04T01:24:15.496Z,8.263
2018-11-04T01:27:15.529Z,8.963
2018-11-04T01:30:15.250Z,7.550
2018-11-04T01:33:15.136Z,10.325
2018-11-04T01:36:15.707Z,14.650
2018-11-04T01:39:15.374Z,14.288
2018-11-04T01:42:15.014Z,8.800
2018-11-04T01:45:15.789Z,9.212
2018-11-04T01:48:15.667Z,9.950
2018-11-04T01:51:15.018Z,12.850
2018-11-04T01:54:16.027Z,15.150
2018-11-04T01:57:15.185Z,9.425
2018-11-04T02:00:15.823Z,6.700
2018-11-04T02:03:15.279Z,8.163
2018-11-04T02:06:14.990Z,6.875
2018-11-04T02:09:15.695Z,15.750
2018-11-04T02:12:15.276Z,8.575
2018-11-04T02:15:15.567Z,7.787
2018-11-04T02:18:15.258Z,8.038
2018-11-04T02:21:15.134Z,11.750
2018-11-04T02:24:15.603Z,9.250
2018-11-04T02:27:15.288Z,11.825
2018-11-04T02:30:15.050Z,6.875
2018-11-04T02:33:15.469Z,9.263
2018-11-04T02:36:15.122Z,8.537
2018-11-04T02:39:15.644Z,8.975
2018-11-04T02:42:14.963Z,8.550
2018-11-04T02:45:15.484Z,11.375
2018-11-04T02:48:15.195Z,10.288
2018-11-04T02:51:15.665Z,15.812
2018-11-04T02:54:15.292Z,14.113
2018-11-04T02:57:15.671Z,7.613
2018-11-04T03:00:15.233Z,10.975
2018-11-04T03:03:15.883Z,10.975
2018-11-04T03:06:15.349Z,15.525
2018-11-04T03:09:15.812Z,9.488
2018-11-04T03:12:15.422Z,10.037
2018-11-04T03:15:14.947Z,13.212
2018-11-04T03:18:15.553Z,10.388
2018-11-04T03:21:15.320Z,12.150
2018-11-04T03:24:15.928Z,13.587
2018-11-04T03:27:15.597Z,12.100
2018-11-04T03:30:15.167Z,14.250
2018-11-04T03:33:15.902Z,8.175
2018-11-04T03:36:15.446Z,14.050
2018-11-04T03:39:15.128Z,13.600
2018-11-04T03:42:15.690Z,14.800
2018-11-04T03:45:15.176Z,12.100
2018-11-04T03:48:15.866Z,16.462
2018-11-04T03:51:15.573Z,16.887
2018-11-04T03:54:15.237Z,8.638
2018-11-04T03:57:15.900Z,15.438
2018-11-04T04:00:15.774Z,11.663
2018-11-04T04:03:15.468Z,14.375
2018-11-04T04:06:15.933Z,10.500
2018-11-04T04:09:15.680Z,12.200
2018-11-04T04:12:15.347Z,10.262
2018-11-04T04:15:15.060Z,11.550
2018-11-04T04:18:15.851Z,13.562
2018-11-04T04:21:15.426Z,11.900
2018-11-04T04:24:15.165Z,10.112
2018-11-04T04:27:15.808Z,12.975
2018-11-04T04:30:15.591Z,17.325
2018-11-04T04:33:15.257Z,13.663
2018-11-04T04:36:15.231Z,18.387
2018-11-04T04:39:15.797Z,12.175
2018-11-04T04:42:15.587Z,12.213
2018-11-04T04:45:15.337Z,12.400
2018-11-04T04:48:15.028Z,9.725
2018-11-04T04:51:15.525Z,13.675
2018-11-04T04:54:15.053Z,10.850
2018-11-04T04:57:15.864Z,12.863
2018-11-04T05:00:15.490Z,12.100
2018-11-04T05:03:15.528Z,12.988
2018-11-04T05:06:15.122Z,10.312
2018-11-04T05:09:14.999Z,13.962
2018-11-04T05:12:15.744Z,19.650
2018-11-04T05:15:15.401Z,13.213
2018-11-04T05:18:15.148Z,14.863
2018-11-04T05:21:15.949Z,16.737
2018-11-04T05:24:15.812Z,13.012
2018-11-04T05:27:15.894Z,13.650
2018-11-04T05:30:15.835Z,15.813
2018-11-04T05:33:15.467Z,16.413
2018-11-04T05:36:14.984Z,13.838
2018-11-04T05:39:15.641Z,14.650
2018-11-04T05:42:15.549Z,14.900
2018-11-04T05:45:15.657Z,15.725
2018-11-04T05:48:15.713Z,11.562
2018-11-04T05:51:15.485Z,10.925
2018-11-04T05:54:15.250Z,13.887
2018-11-04T05:57:15.075Z,7.912
2018-11-04T06:00:15.424Z,8.613
2018-11-04T06:03:15.106Z,12.387
2018-11-04T06:06:15.057Z,14.350
2018-11-04T06:09:15.968Z,10.312
2018-11-04T06:12:15.593Z,13.625
2018-11-04T06:15:15.435Z,16.413
2018-11-04T06:18:15.222Z,7.963
2018-11-04T06:21:16.003Z,9.800
2018-11-04T06:24:15.646Z,10.588
2018-11-04T06:27:15.565Z,15.600
2018-11-04T06:30:15.397Z,13.350
2018-11-04T06:33:15.323Z,16.938
2018-11-04T06:36:15.868Z,12.562
2018-11-04T06:39:15.152Z,9.750
2018-11-04T06:42:15.698Z,16.675
2018-11-04T06:45:15.693Z,6.925
2018-11-04T06:48:15.405Z,11.512
2018-11-04T06:51:15.155Z,13.287
2018-11-04T06:54:15.751Z,14.725
2018-11-04T06:57:15.505Z,16.413
2018-11-04T07:00:20.413Z,14.513
2018-11-04T07:03:15.925Z,16.062
2018-11-04T07:06:15.603Z,12.312
2018-11-04T07:09:15.511Z,12.938
2018-11-04T07:12:15.018Z,13.875
2018-11-04T07:15:15.572Z,10.725
2018-11-04T07:18:15.479Z,14.600
2018-11-04T07:21:15.163Z,16.775
2018-11-04T07:24:15.854Z,7.637
2018-11-04T07:27:15.520Z,16.038
2018-11-04T07:30:15.421Z,17.013
2018-11-04T07:33:15.291Z,13.300
2018-11-04T07:36:15.419Z,15.750
2018-11-04T07:39:15.372Z,15.450
2018-11-04T07:42:15.356Z,15.788
2018-11-04T07:45:15.400Z,16.525
2018-11-04T07:48:15.251Z,16.637
2018-11-04T07:51:15.097Z,14.875
2018-11-04T07:54:15.223Z,15.113
2018-11-04T07:57:15.903Z,12.213
2018-11-04T08:00:15.719Z,16.688
2018-11-04T08:03:15.413Z,17.988
2018-11-04T08:06:15.513Z,12.850
2018-11-04T08:09:15.438Z,15.812
2018-11-04T08:12:15.415Z,12.175
2018-11-04T08:15:15.167Z,19.812
2018-11-04T08:18:15.805Z,17.475
2018-11-04T08:21:15.686Z,19.300
2018-11-04T08:24:15.830Z,13.312
2018-11-04T08:27:15.788Z,19.725
2018-11-04T08:30:15.738Z,14.600
2018-11-04T08:33:15.448Z,13.275
2018-11-04T08:36:15.198Z,14.100
2018-11-04T08:39:15.289Z,19.875
2018-11-04T08:42:15.966Z,20.225
2018-11-04T08:45:15.770Z,27.375
2018-11-04T08:48:15.605Z,18.062
2018-11-04T08:51:15.341Z,20.762
2018-11-04T08:54:15.193Z,16.238
2018-11-04T08:57:15.881Z,15.800
2018-11-04T09:00:15.890Z,22.462
2018-11-04T09:03:15.778Z,18.175
2018-11-04T09:06:15.480Z,16.312
2018-11-04T09:09:16.031Z,17.737
2018-11-04T09:12:15.172Z,17.637
2018-11-04T09:15:15.139Z,19.000
2018-11-04T09:18:15.972Z,10.625
2018-11-04T09:21:15.799Z,17.787
2018-11-04T09:24:15.917Z,24.013
2018-11-04T09:27:15.467Z,17.825
2018-11-04T09:30:15.181Z,16.238
2018-11-04T09:33:15.794Z,24.738
2018-11-04T09:36:15.706Z,17.488
2018-11-04T09:39:15.238Z,20.025
2018-11-04T09:42:15.405Z,20.225
2018-11-04T09:45:15.376Z,18.737
2018-11-04T09:48:15.174Z,18.775
2018-11-04T09:51:15.101Z,18.575
2018-11-04T09:54:15.087Z,19.062
2018-11-04T09:57:15.858Z,21.750
2018-11-04T10:00:15.701Z,19.337
2018-11-04T10:03:15.465Z,22.950
2018-11-04T10:06:15.467Z,16.512
2018-11-04T10:09:15.241Z,16.675
2018-11-04T10:12:15.207Z,16.488
2018-11-04T10:15:16.019Z,17.788
2018-11-04T10:18:15.115Z,23.450
2018-11-04T10:21:15.072Z,22.375
2018-11-04T10:24:15.854Z,15.025
2018-11-04T10:27:16.063Z,18.525
2018-11-04T10:30:15.269Z,22.025
2018-11-04T10:33:15.349Z,15.200
2018-11-04T10:36:15.282Z,20.862
2018-11-04T10:39:15.231Z,16.325
2018-11-04T10:42:15.207Z,17.100
2018-11-04T10:45:15.161Z,27.325
2018-11-04T10:48:15.006Z,19.788
2018-11-04T10:51:15.903Z,17.438
2018-11-04T10:54:15.502Z,18.850
2018-11-04T10:57:15.531Z,14.050
2018-11-04T11:00:15.201Z,16.112
2018-11-04T11:03:15.858Z,15.050
2018-11-04T11:06:15.717Z,19.875
2018-11-04T11:09:15.650Z,17.525
2018-11-04T11:12:15.416Z,16.488
2018-11-04T11:15:15.669Z,22.262
2018-11-04T11:18:20.900Z,16.525
2018-11-04T11:21:15.644Z,15.150
2018-11-04T11:24:15.608Z,11.188
2018-11-04T11:27:15.447Z,12.150
2018-11-04T11:30:15.815Z,16.612
2018-11-04T11:33:15.774Z,15.075
2018-11-04T11:36:15.556Z,21.700
2018-11-04T11:39:15.318Z,16.350
2018-11-04T11:42:15.490Z,16.337
2018-11-04T11:45:15.746Z,13.037
2018-11-04T11:48:15.653Z,22.550
2018-11-04T11:51:15.805Z,16.000
2018-11-04T11:54:15.845Z,14.500
2018-11-04T11:57:15.523Z,16.513
2018-11-04T12:00:15.335Z,17.300
2018-11-04T12:03:15.959Z,14.875
2018-11-04T12:06:15.695Z,20.062
2018-11-04T12:09:15.380Z,19.850
2018-11-04T12:12:15.351Z,15.975
2018-11-04T12:15:15.504Z,15.163
2018-11-04T12:18:15.513Z,16.425
2018-11-04T12:21:15.189Z,16.788
2018-11-04T12:24:15.917Z,14.700
2018-11-04T12:27:15.547Z,14.438
2018-11-04T12:30:15.600Z,20.275
2018-11-04T12:33:15.226Z,10.812
2018-11-04T12:36:15.265Z,15.050
2018-11-04T12:39:15.223Z,12.975
2018-11-04T12:42:15.082Z,14.550
2018-11-04T12:45:15.937Z,14.775
2018-11-04T12:48:15.901Z,15.637
2018-11-04T12:51:15.643Z,13.312
2018-11-04T12:54:15.435Z,10.300
2018-11-04T12:57:15.291Z,12.550
2018-11-04T13:00:15.310Z,13.762
2018-11-04T13:03:15.440Z,17.425
2018-11-04T13:06:15.285Z,15.925
2018-11-04T13:09:15.842Z,13.638
2018-11-04T13:12:15.808Z,16.588
2018-11-04T13:15:15.574Z,13.213
2018-11-04T13:18:15.566Z,14.250
2018-11-04T13:21:15.358Z,11.587
2018-11-04T13:24:15.305Z,15.925
2018-11-04T13:27:14.934Z,13.100
2018-11-04T13:30:15.783Z,17.712
2018-11-04T13:33:15.643Z,16.688
2018-11-04T13:36:15.419Z,12.438
2018-11-04T13:39:15.394Z,11.425
2018-11-04T13:42:15.045Z,17.613
2018-11-04T13:45:15.745Z,12.588
2018-11-04T13:48:15.876Z,13.288
2018-11-04T13:51:15.658Z,11.800
2018-11-04T13:54:15.465Z,16.337
2018-11-04T13:57:14.957Z,15.575
2018-11-04T14:00:16.126Z,10.062
2018-11-04T14:03:20.023Z,15.513
2018-11-04T14:06:15.602Z,12.113
2018-11-04T14:09:15.488Z,13.450
2018-11-04T14:12:15.480Z,13.400
2018-11-04T14:15:15.290Z,11.200
2018-11-04T14:18:15.248Z,12.075
2018-11-04T14:21:15.995Z,11.113
2018-11-04T14:24:15.817Z,16.363
2018-11-04T14:27:15.805Z,13.500
2018-11-04T14:30:15.684Z,13.300
2018-11-04T14:33:15.598Z,10.700
2018-11-04T14:36:15.429Z,12.262
2018-11-04T14:39:15.143Z,15.037
2018-11-04T14:42:15.086Z,12.238
2018-11-04T14:45:15.870Z,12.412
2018-11-04T14:48:15.872Z,14.262
2018-11-04T14:51:15.821Z,15.662
2018-11-04T14:54:15.853Z,6.825
2018-11-04T14:57:15.553Z,8.012
2018-11-04T15:00:15.164Z,8.800
2018-11-04T15:03:14.935Z,8.763
2018-11-04T15:06:15.728Z,13.238
2018-11-04T15:09:15.318Z,9.537
2018-11-04T15:12:15.032Z,12.400
2018-11-04T15:15:15.111Z,10.537
2018-11-04T15:18:15.111Z,8.188
2018-11-04T15:21:15.248Z,11.250
2018-11-04T15:24:15.255Z,7.487
2018-11-04T15:27:15.094Z,9.213
2018-11-04T15:30:15.016Z,7.525
2018-11-04T15:33:16.009Z,9.088
2018-11-04T15:36:15.974Z,13.962
2018-11-04T15:39:15.857Z,9.788
2018-11-04T15:42:15.105Z,14.400
2018-11-04T15:45:15.449Z,9.200
2018-11-04T15:48:15.258Z,8.887
2018-11-04T15:51:15.494Z,12.650
2018-11-04T15:54:15.695Z,10.825
2018-11-04T15:57:15.977Z,12.100
2018-11-04T16:00:15.301Z,8.713
2018-11-04T16:03:15.480Z,12.088
2018-11-04T16:06:15.890Z,10.238
2018-11-04T16:09:15.330Z,8.088
2018-11-04T16:12:15.936Z,8.575
2018-11-04T16:15:15.534Z,10.475
2018-11-04T16:18:15.480Z,13.500
2018-11-04T16:21:15.372Z,8.837
2018-11-04T16:24:15.889Z,10.938
2018-11-04T16:27:15.509Z,8.400
2018-11-04T16:30:15.105Z,14.025
2018-11-04T16:33:15.141Z,8.475
2018-11-04T16:36:15.181Z,6.150
2018-11-04T16:39:15.146Z,8.350
2018-11-04T16:42:15.046Z,5.312
2018-11-04T16:45:15.158Z,6.837
2018-11-04T16:48:15.060Z,4.700
2018-11-04T16:51:14.975Z,7.475
2018-11-04T16:54:15.822Z,12.000
2018-11-04T16:57:15.829Z,9.338
2018-11-04T17:00:15.154Z,7.737
2018-11-04T17:03:15.160Z,6.138
2018-11-04T17:06:15.280Z,6.738
2018-11-04T17:09:15.539Z,10.938
2018-11-04T17:12:15.231Z,6.138
2018-11-04T17:15:15.076Z,7.137
2018-11-04T17:18:15.310Z,6.125
2018-11-04T17:21:15.040Z,6.550
2018-11-04T17:24:20.053Z,8.925
2018-11-04T17:27:15.738Z,5.263
2018-11-04T17:30:15.773Z,7.987
2018-11-04T17:33:15.863Z,8.488
2018-11-04T17:36:15.788Z,7.925
2018-11-04T17:39:15.090Z,4.300
2018-11-04T17:42:15.243Z,5.675
2018-11-04T17:45:15.235Z,9.875
2018-11-04T17:48:15.536Z,7.237
2018-11-04T17:51:15.671Z,7.425
2018-11-04T17:54:15.375Z,7.175
2018-11-04T17:57:15.342Z,4.263
2018-11-04T18:00:15.228Z,10.462
2018-11-04T18:03:15.262Z,10.350
2018-11-04T18:06:15.252Z,6.987
2018-11-04T18:09:15.424Z,8.388
2018-11-04T18:12:15.206Z,7.138
2018-11-04T18:15:15.080Z,6.200
2018-11-04T18:18:15.310Z,11.600
2018-11-04T18:21:15.245Z,6.150
2018-11-04T18:24:15.051Z,7.850
2018-11-04T18:27:15.133Z,6.950
2018-11-04T18:30:15.373Z,6.950
2018-11-04T18:33:15.237Z,4.487
2018-11-04T18:36:15.371Z,6.550
2018-11-04T18:39:15.426Z,6.400
2018-11-04T18:42:15.524Z,8.600
2018-11-04T18:45:15.195Z,4.850
2018-11-04T18:48:15.192Z,8.788
2018-11-04T18:51:15.029Z,4.725
2018-11-04T18:54:15.137Z,5.600
2018-11-04T18:57:15.198Z,4.625
2018-11-04T19:00:15.174Z,9.050
2018-11-04T19:03:15.076Z,3.638
2018-11-04T19:06:15.609Z,6.362
2018-11-04T19:09:15.865Z,7.237
2018-11-04T19:12:16.067Z,3.837
2018-11-04T19:15:15.300Z,4.338
2018-11-04T19:18:15.367Z,5.812
2018-11-04T19:21:15.464Z,7.037
2018-11-04T19:24:15.374Z,5.500
2018-11-04T19:27:15.101Z,5.050
2018-11-04T19:30:15.310Z,6.688
2018-11-04T19:33:15.873Z,4.500
2018-11-04T19:36:15.846Z,4.850
2018-11-04T19:39:15.101Z,5.750
2018-11-04T19:42:15.627Z,6.988
2018-11-04T19:45:15.810Z,6.675
2018-11-04T19:48:15.526Z,4.688
2018-11-04T19:51:15.543Z,6.637
2018-11-04T19:54:15.284Z,5.013
2018-11-04T19:57:15.540Z,4.000
2018-11-04T20:00:15.240Z,4.225
2018-11-04T20:03:15.621Z,4.287
2018-11-04T20:06:15.224Z,4.162
2018-11-04T20:09:15.413Z,5.200
2018-11-04T20:12:16.003Z,5.088
2018-11-04T20:15:15.403Z,5.612
2018-11-04T20:18:15.237Z,9.338
2018-11-04T20:21:15.824Z,5.763
2018-11-04T20:24:15.538Z,6.113
2018-11-04T20:27:15.248Z,7.537
2018-11-04T20:30:15.515Z,6.450
2018-11-04T20:33:15.905Z,6.438
2018-11-04T20:36:15.550Z,6.737
2018-11-04T20:39:14.988Z,10.000
2018-11-04T20:42:15.536Z,9.250
2018-11-04T20:45:15.517Z,8.737
2018-11-04T20:48:15.367Z,6.138
2018-11-04T20:51:15.645Z,8.250
2018-11-04T20:54:15.918Z,9.150
2018-11-04T20:57:15.664Z,8.875
2018-11-04T21:00:16.037Z,5.000
2018-11-04T21:03:15.007Z,8.550
2018-11-04T21:06:15.163Z,8.338
2018-11-04T21:09:15.722Z,9.725
2018-11-04T21:12:15.377Z,8.075
2018-11-04T21:15:15.864Z,7.450
2018-11-04T21:18:15.825Z,9.000
2018-11-04T21:21:15.667Z,9.225
2018-11-04T21:24:15.552Z,8.350
2018-11-04T21:27:15.343Z,18.150
2018-11-04T21:30:15.234Z,11.713
2018-11-04T21:33:15.315Z,6.388
2018-11-04T21:36:20.334Z,6.125
2018-11-04T21:39:15.817Z,5.275
2018-11-04T21:42:15.340Z,7.925
2018-11-04T21:45:15.868Z,5.987
2018-11-04T21:48:15.430Z,8.113
2018-11-04T21:51:15.595Z,5.812
2018-11-04T21:54:15.144Z,7.425
2018-11-04T21:57:15.497Z,10.487
2018-11-04T22:00:15.113Z,9.688
2018-11-04T22:03:15.579Z,7.475
2018-11-04T22:06:16.045Z,8.912
2018-11-04T22:09:15.578Z,9.138
2018-11-04T22:12:15.529Z,9.425
2018-11-04T22:15:15.153Z,6.050
2018-11-04T22:18:15.997Z,6.325
2018-11-04T22:21:15.847Z,5.763
2018-11-04T22:24:15.556Z,4.613
2018-11-04T22:27:15.752Z,5.100
2018-11-04T22:30:15.699Z,7.375
2018-11-04T22:33:15.205Z,9.287
2018-11-04T22:36:15.283Z,6.575
2018-11-04T22:39:15.548Z,5.612
2018-11-04T22:42:15.471Z,7.387
2018-11-04T22:45:16.121Z,8.000
2018-11-04T22:48:15.180Z,11.250
2018-11-04T22:51:15.418Z,4.588
2018-11-04T22:54:15.648Z,7.787
2018-11-04T22:57:15.140Z,4.037
2018-11-04T23:00:15.892Z,8.325
2018-11-04T23:03:15.493Z,8.512
2018-11-04T23:06:15.928Z,4.987
2018-11-04T23:09:15.718Z,7.988
2018-11-04T23:12:15.621Z,6.475
2018-11-04T23:15:15.199Z,9.250
2018-11-04T23:18:15.567Z,6.950
2018-11-04T23:21:15.588Z,9.975
2018-11-04T23:24:15.500Z,9.113
2018-11-04T23:27:20.460Z,7.437
2018-11-04T23:30:15.893Z,6.787
2018-11-04T23:33:15.874Z,7.200
2018-11-04T23:36:15.530Z,9.212
2018-11-04T23:39:15.510Z,7.537
2018-11-04T23:42:16.015Z,10.525
2018-11-04T23:45:15.270Z,8.850
2018-11-04T23:48:15.677Z,7.138
2018-11-04T23:51:16.057Z,7.725
2018-11-04T23:54:15.572Z,7.325
2018-11-04T23:57:15.622Z,8.012
